Time;durP1;ratioP1;P1;durP2;ratioP2;P2;SDS_P1;SDS_P2;PMS_P1;PMS_P2;Temp;Humidity;BMP_temperature;BMP_pressure;BME280_temperature;BME280_humidity;BME280_pressure;Samples;Min_cycle;Max_cycle;Signal;HPM_P1;HPM_P2
2023/02/23 00:00:48;;;;;;;27.45;14.18;;;;;;;6.78;81.82;95871.72;5012705;28;20042;-73
2023/02/23 00:03:15;;;;;;;28.17;15.25;;;;;;;6.76;81.49;95876.66;5013426;28;20506;-74
2023/02/23 00:05:42;;;;;;;26.40;15.77;;;;;;;6.78;80.97;95880.63;5013415;28;20046;-73
2023/02/23 00:08:09;;;;;;;29.33;15.80;;;;;;;6.93;80.31;95879.50;5012736;28;20049;-74
2023/02/23 00:10:36;;;;;;;23.52;14.93;;;;;;;6.78;81.44;95877.13;5013566;28;20537;-74
2023/02/23 00:13:03;;;;;;;26.50;14.35;;;;;;;6.81;81.50;95876.53;5012206;28;20410;-74
2023/02/23 00:15:30;;;;;;;25.10;14.90;;;;;;;6.79;81.20;95881.47;5013564;28;20071;-73
2023/02/23 00:17:57;;;;;;;26.08;15.20;;;;;;;6.85;81.29;95879.44;5013630;28;20076;-74
2023/02/23 00:20:26;;;;;;;27.42;14.80;;;;;;;6.98;81.01;95882.06;5012678;28;20049;-73
2023/02/23 00:22:54;;;;;;;23.70;14.45;;;;;;;7.03;80.48;95879.25;5013329;28;20046;-74
2023/02/23 00:25:21;;;;;;;29.60;15.30;;;;;;;7.00;80.83;95873.66;5012968;28;20037;-73
2023/02/23 00:27:48;;;;;;;25.90;15.48;;;;;;;6.76;82.23;95879.34;5012984;28;20042;-74
2023/02/23 00:30:17;;;;;;;28.33;15.45;;;;;;;6.63;83.23;95872.06;5012652;28;20437;-73
2023/02/23 00:32:44;;;;;;;27.95;15.77;;;;;;;6.65;83.33;95873.38;5013178;28;20129;-73
2023/02/23 00:35:16;;;;;;;33.78;16.40;;;;;;;6.63;83.32;95877.47;5012321;28;20046;-73
2023/02/23 00:37:45;;;;;;;24.63;15.32;;;;;;;6.69;83.56;95877.06;5012965;28;20084;-74
2023/02/23 00:40:15;;;;;;;25.80;14.93;;;;;;;6.65;83.70;95872.56;5012456;28;20053;-74
2023/02/23 00:42:42;;;;;;;27.52;15.48;;;;;;;6.60;83.81;95872.69;5012929;28;20053;-74
2023/02/23 00:45:11;;;;;;;27.83;15.85;;;;;;;6.56;84.48;95877.88;5012280;28;20045;-74
2023/02/23 00:47:38;;;;;;;31.02;15.25;;;;;;;6.56;84.42;95877.09;5012888;28;20054;-74
2023/02/23 00:50:06;;;;;;;26.33;16.13;;;;;;;6.54;84.82;95878.19;5011707;28;20049;-74
2023/02/23 00:52:32;;;;;;;25.77;16.08;;;;;;;6.50;85.46;95876.41;5012861;28;20041;-74
2023/02/23 00:55:00;;;;;;;25.52;15.73;;;;;;;6.49;85.51;95870.19;5012625;28;20042;-74
2023/02/23 00:57:27;;;;;;;31.70;16.20;;;;;;;6.48;85.48;95870.50;5010790;28;20496;-74
2023/02/23 00:59:53;;;;;;;30.73;16.48;;;;;;;6.51;85.97;95867.97;5012106;28;20448;-73
2023/02/23 01:02:20;;;;;;;25.77;15.75;;;;;;;6.57;85.63;95870.56;5004000;28;20409;-74
2023/02/23 01:04:46;;;;;;;28.55;16.55;;;;;;;6.54;85.46;95872.78;5012234;28;20053;-74
2023/02/23 01:07:13;;;;;;;27.48;15.38;;;;;;;6.53;85.88;95873.91;5011905;28;20042;-74
2023/02/23 01:09:39;;;;;;;27.40;16.38;;;;;;;6.59;85.46;95868.38;5012493;28;20073;-74
2023/02/23 01:12:07;;;;;;;29.13;16.98;;;;;;;6.63;85.27;95882.88;5011605;28;20046;-74
2023/02/23 01:14:36;;;;;;;29.95;16.02;;;;;;;6.61;85.02;95871.56;5012377;28;20410;-74
2023/02/23 01:17:02;;;;;;;25.98;16.13;;;;;;;6.60;85.30;95875.38;5011994;28;20095;-74
2023/02/23 01:19:32;;;;;;;30.48;16.95;;;;;;;6.53;85.87;95865.78;5012025;28;20494;-74
2023/02/23 01:21:59;;;;;;;29.48;16.17;;;;;;;6.58;85.75;95877.56;5012070;28;20076;-73
2023/02/23 01:24:25;;;;;;;25.65;15.88;;;;;;;6.58;85.56;95869.47;5011737;28;20042;-74
2023/02/23 01:26:52;;;;;;;28.60;16.83;;;;;;;6.54;86.03;95869.28;5012335;28;20049;-74
2023/02/23 01:29:20;;;;;;;31.38;17.13;;;;;;;6.51;86.50;95867.97;5011990;28;20046;-74
2023/02/23 01:31:50;;;;;;;28.17;16.90;;;;;;;6.61;86.34;95869.66;5012337;28;20049;-74
2023/02/23 01:34:17;;;;;;;28.67;16.77;;;;;;;6.69;85.89;95870.88;5011227;28;20129;-74
2023/02/23 01:36:44;;;;;;;27.40;16.17;;;;;;;6.62;86.04;95865.03;5011549;28;20038;-74
2023/02/23 01:39:12;;;;;;;26.83;16.35;;;;;;;6.58;86.19;95864.06;4991960;28;20051;-73
2023/02/23 01:41:41;;;;;;;33.90;17.63;;;;;;;6.50;86.71;95866.38;4992796;28;20054;-73
2023/02/23 01:44:29;;;;;;;29.90;16.95;;;;;;;6.56;86.63;95863.56;4992146;28;20053;-73
2023/02/23 01:46:58;;;;;;;28.23;16.90;;;;;;;6.50;86.76;95863.69;4993440;28;20129;-74
2023/02/23 01:49:28;;;;;;;28.60;16.63;;;;;;;6.56;86.37;95852.75;5011931;28;20468;-74
2023/02/23 01:51:59;;;;;;;28.73;17.05;;;;;;;6.44;86.87;95855.97;5012726;28;20489;-73
2023/02/23 01:54:30;;;;;;;33.08;17.48;;;;;;;6.41;87.54;95862.78;5013993;28;20454;-74
2023/02/23 01:57:00;;;;;;;31.88;17.58;;;;;;;6.48;87.28;95856.97;5014236;28;20045;-74
2023/02/23 01:59:33;;;;;;;28.05;16.85;;;;;;;6.51;87.44;95859.84;5011942;28;20045;-73
2023/02/23 02:02:03;;;;;;;29.30;16.23;;;;;;;6.54;86.93;95856.56;5011251;28;20520;-73
2023/02/23 02:04:42;;;;;;;29.00;16.58;;;;;;;6.35;87.99;95849.69;5012219;28;20138;-73
2023/02/23 02:07:10;;;;;;;29.88;16.67;;;;;;;6.32;88.28;95845.69;5012895;28;20056;-74
2023/02/23 02:09:38;;;;;;;30.75;17.67;;;;;;;6.23;88.85;95855.59;5017472;28;20061;-74
2023/02/23 02:12:07;;;;;;;30.70;17.23;;;;;;;6.30;88.87;95856.00;5018610;28;20070;-74
2023/02/23 02:14:35;;;;;;;35.05;18.27;;;;;;;6.28;88.79;95858.22;5018129;28;20072;-74
2023/02/23 02:17:20;;;;;;;33.67;17.85;;;;;;;6.25;89.06;95858.81;5018543;28;20050;-73
2023/02/23 02:24:15;;;;;;;30.63;18.50;;;;;;;6.16;89.55;95850.63;5016050;28;20052;-74
2023/02/23 02:26:53;;;;;;;31.55;17.88;;;;;;;6.10;90.15;95845.59;4913461;29;20108;-74
2023/02/23 02:30:00;;;;;;;31.88;18.35;;;;;;;6.10;90.03;95848.28;4912658;29;20052;-73
2023/02/23 02:32:54;;;;;;;30.48;17.92;;;;;;;6.08;90.41;95850.50;5008138;28;20041;-73
2023/02/23 02:36:05;;;;;;;35.47;17.10;;;;;;;6.21;89.87;95852.38;5017590;28;20038;-74
2023/02/23 02:38:52;;;;;;;31.17;18.60;;;;;;;6.06;90.39;95850.03;5020867;28;20445;-74
2023/02/23 02:41:25;;;;;;;29.52;17.33;;;;;;;6.14;90.55;95852.00;5033219;28;20088;-74
2023/02/23 02:44:00;;;;;;;29.05;16.73;;;;;;;6.12;90.06;95852.31;5030842;28;20057;-73
2023/02/23 02:46:30;;;;;;;34.20;18.58;;;;;;;6.13;90.29;95856.63;5030430;28;20468;-73
2023/02/23 02:49:05;;;;;;;32.50;18.08;;;;;;;6.09;90.52;95855.59;5030763;28;20049;-73
2023/02/23 02:51:38;;;;;;;29.92;18.63;;;;;;;6.13;90.61;95855.81;5031283;28;20044;-74
2023/02/23 02:54:13;;;;;;;31.05;17.40;;;;;;;6.16;90.09;95856.03;5029905;28;20076;-74
2023/02/23 02:56:42;;;;;;;29.05;17.70;;;;;;;6.15;90.35;95861.72;5032005;28;20132;-73
2023/02/23 04:18:05;;;;;;;37.20;21.08;;;;;;;6.33;89.57;95877.03;5009599;28;20057;-74
2023/02/23 04:20:32;;;;;;;38.65;20.92;;;;;;;6.41;88.98;95879.00;5009880;28;20042;-74
2023/02/23 04:22:58;;;;;;;36.50;21.08;;;;;;;6.35;89.21;95880.22;5010204;28;20045;-74
2023/02/23 04:25:25;;;;;;;36.13;19.70;;;;;;;6.44;88.36;95883.03;5012550;28;20438;-74
2023/02/23 04:27:52;;;;;;;39.38;21.08;;;;;;;6.33;88.73;95882.44;5015320;28;20050;-74
2023/02/23 04:30:19;;;;;;;37.63;21.80;;;;;;;6.43;88.56;95882.22;5021307;28;20041;-75
2023/02/23 04:32:46;;;;;;;36.90;20.63;;;;;;;6.41;88.14;95883.63;5021926;28;20057;-74
2023/02/23 04:35:14;;;;;;;35.92;20.10;;;;;;;6.46;87.75;95881.59;5021286;28;20084;-74
2023/02/23 04:37:40;;;;;;;37.72;21.33;;;;;;;6.27;88.83;95883.66;5021507;28;20497;-75
2023/02/23 04:40:08;;;;;;;35.95;20.40;;;;;;;6.35;88.26;95884.84;5020584;28;20046;-74
2023/02/23 04:42:35;;;;;;;37.67;20.17;;;;;;;6.35;88.99;95885.63;5019639;28;20048;-74
2023/02/23 04:45:01;;;;;;;36.38;20.27;;;;;;;6.39;88.29;95886.63;5019918;28;20054;-75
2023/02/23 04:47:28;;;;;;;37.28;20.70;;;;;;;6.34;88.58;95884.03;5020619;28;20041;-74
2023/02/23 04:49:54;;;;;;;39.75;22.20;;;;;;;6.18;89.60;95888.16;5020456;28;20042;-74
2023/02/23 04:52:22;;;;;;;34.85;20.17;;;;;;;6.37;89.07;95890.72;5019951;28;20038;-74
2023/02/23 04:54:49;;;;;;;38.08;20.52;;;;;;;6.48;88.54;95887.53;5021466;28;20053;-74
2023/02/23 04:57:15;;;;;;;37.05;20.90;;;;;;;6.53;87.74;95895.53;5021142;28;20046;-74
2023/02/23 04:59:42;;;;;;;38.92;21.45;;;;;;;6.70;86.94;95894.91;5019984;28;20053;-74
2023/02/23 05:02:08;;;;;;;38.53;20.98;;;;;;;6.59;86.86;95896.22;5014888;28;20069;-73
2023/02/23 05:04:35;;;;;;;34.50;19.95;;;;;;;6.70;86.72;95891.41;5010688;28;20050;-73
2023/02/23 05:07:02;;;;;;;34.17;20.05;;;;;;;6.81;86.20;95895.47;4994801;28;20058;-74
2023/02/23 05:09:30;;;;;;;33.75;20.45;;;;;;;6.88;85.56;95895.03;4994635;28;20054;-73
2023/02/23 05:11:57;;;;;;;34.75;19.95;;;;;;;6.88;85.45;95897.75;5012847;28;20057;-73
2023/02/23 05:14:23;;;;;;;36.38;21.13;;;;;;;6.73;86.06;95890.78;5014526;28;20409;-73
2023/02/23 05:16:50;;;;;;;40.75;21.20;;;;;;;6.70;86.28;95896.81;5014920;28;20057;-73
2023/02/23 05:19:16;;;;;;;38.53;21.25;;;;;;;6.71;86.26;95899.19;5014789;28;20081;-74
2023/02/23 05:21:43;;;;;;;35.67;20.85;;;;;;;6.84;86.04;95897.59;5014601;28;20046;-74
2023/02/23 05:24:10;;;;;;;36.45;20.38;;;;;;;6.93;85.71;95905.75;5014708;28;20046;-73
2023/02/23 05:26:38;;;;;;;39.15;21.60;;;;;;;6.95;85.18;95903.56;5015166;28;20037;-74
2023/02/23 05:29:05;;;;;;;37.90;20.38;;;;;;;7.01;85.27;95902.34;5014769;28;20046;-74
2023/02/23 05:31:32;;;;;;;35.47;20.63;;;;;;;7.05;84.92;95897.91;5014781;28;20042;-73
2023/02/23 05:33:58;;;;;;;37.97;21.45;;;;;;;7.02;84.54;95904.72;5014210;28;20042;-74
2023/02/23 05:36:24;;;;;;;35.53;20.42;;;;;;;7.04;84.62;95896.28;5013320;28;20046;-73
2023/02/23 05:38:51;;;;;;;36.97;20.10;;;;;;;7.03;84.55;95900.91;5013617;28;20417;-73
2023/02/23 05:41:20;;;;;;;30.52;19.10;;;;;;;7.11;83.82;95901.31;5012402;28;20049;-73
2023/02/23 05:43:49;;;;;;;40.95;21.33;;;;;;;7.04;84.04;95899.81;5012851;28;20057;-73
2023/02/23 05:46:19;;;;;;;34.47;20.50;;;;;;;7.11;84.05;95906.72;5012593;28;20050;-73
2023/02/23 05:48:46;;;;;;;35.33;20.40;;;;;;;7.10;84.36;95905.09;5013076;28;20054;-73
2023/02/23 05:51:14;;;;;;;41.85;22.35;;;;;;;7.03;84.52;95906.31;5012621;28;20057;-74
2023/02/23 05:53:41;;;;;;;41.28;22.27;;;;;;;6.77;85.64;95908.81;5012710;28;20053;-73
2023/02/23 05:56:17;;;;;;;44.05;22.90;;;;;;;6.52;87.35;95907.47;5012431;28;20050;-74
2023/02/23 05:58:43;;;;;;;41.88;23.33;;;;;;;6.43;88.28;95908.47;5012853;28;20073;-73
2023/02/23 06:01:11;;;;;;;44.28;21.83;;;;;;;6.38;88.60;95903.97;5013335;28;20049;-73
2023/02/23 06:03:38;;;;;;;41.22;22.52;;;;;;;6.39;88.82;95910.97;5017049;28;20054;-74
2023/02/23 06:06:05;;;;;;;40.03;21.52;;;;;;;6.40;88.77;95909.06;5018936;28;20144;-74
2023/02/23 06:08:31;;;;;;;37.70;21.45;;;;;;;6.45;88.30;95909.75;5017004;28;20121;-74
2023/02/23 06:10:58;;;;;;;41.05;21.20;;;;;;;6.31;89.24;95911.66;5015915;28;20076;-74
2023/02/23 06:13:25;;;;;;;40.05;21.90;;;;;;;6.24;89.54;95914.78;5015255;28;20045;-74
2023/02/23 06:15:51;;;;;;;38.85;21.20;;;;;;;6.22;90.03;95913.50;5015709;28;20049;-74
2023/02/23 06:18:20;;;;;;;36.90;20.17;;;;;;;6.42;89.20;95909.56;5014098;28;20054;-74
2023/02/23 06:20:46;;;;;;;38.53;20.92;;;;;;;6.49;88.25;95907.25;5014116;28;20053;-73
2023/02/23 06:23:14;;;;;;;38.65;21.08;;;;;;;6.47;88.14;95910.28;5012585;28;20045;-74
2023/02/23 06:25:41;;;;;;;40.85;21.65;;;;;;;6.32;89.20;95924.09;5013311;28;20053;-74
2023/02/23 06:28:09;;;;;;;38.47;20.40;;;;;;;6.34;89.48;95921.91;5012537;28;20046;-74
2023/02/23 06:30:37;;;;;;;37.95;21.15;;;;;;;6.26;89.68;95931.53;5013475;28;20042;-74
2023/02/23 06:33:04;;;;;;;39.28;20.30;;;;;;;6.24;90.01;95927.50;5013563;28;20053;-75
2023/02/23 06:35:32;;;;;;;42.03;19.77;;;;;;;6.15;90.41;95927.38;4997502;28;20050;-76
2023/02/23 06:37:59;;;;;;;38.28;20.10;;;;;;;6.20;91.17;95929.19;4993599;28;20054;-77
2023/02/23 06:40:26;;;;;;;37.00;20.50;;;;;;;6.24;90.21;95927.50;4993513;28;20046;-77
2023/02/23 06:42:52;;;;;;;40.58;21.42;;;;;;;6.24;90.26;95939.13;4993277;28;20046;-78
2023/02/23 06:45:19;;;;;;;35.47;19.13;;;;;;;6.26;89.93;95936.09;5004838;28;20061;-75
2023/02/23 06:47:46;;;;;;;33.47;19.15;;;;;;;6.41;89.91;95935.81;5010911;28;20074;-75
2023/02/23 06:50:13;;;;;;;33.28;19.30;;;;;;;6.41;88.98;95938.50;5010902;28;20046;-75
2023/02/23 06:52:41;;;;;;;38.60;20.77;;;;;;;6.52;88.84;95934.53;5011069;28;20391;-76
2023/02/23 06:55:09;;;;;;;36.42;18.52;;;;;;;6.62;88.18;95935.38;5010627;28;20054;-75
2023/02/23 06:57:35;;;;;;;33.53;18.60;;;;;;;6.76;87.52;95936.19;5010959;28;20053;-75
2023/02/23 07:00:03;;;;;;;32.92;17.98;;;;;;;6.71;87.19;95941.69;5010489;28;20120;-75
2023/02/23 07:02:29;;;;;;;32.05;18.05;;;;;;;6.88;86.21;95941.84;5008422;28;20046;-75
2023/02/23 07:04:55;;;;;;;29.05;17.63;;;;;;;7.01;85.53;95941.03;5003423;28;20046;-75
2023/02/23 07:07:22;;;;;;;32.28;18.13;;;;;;;7.00;85.40;95944.84;5010175;28;20061;-75
2023/02/23 07:09:50;;;;;;;33.50;18.23;;;;;;;7.02;85.93;95956.16;5011269;28;20050;-75
2023/02/23 07:12:16;;;;;;;35.00;19.25;;;;;;;6.97;85.88;95948.16;5010184;28;20042;-76
2023/02/23 07:14:43;;;;;;;35.90;18.67;;;;;;;6.85;86.58;95952.50;5011101;28;20046;-75
2023/02/23 07:17:09;;;;;;;30.13;17.90;;;;;;;6.66;87.91;95953.44;5010182;28;20061;-75
2023/02/23 07:19:36;;;;;;;31.83;17.63;;;;;;;6.68;87.82;95951.22;5010460;28;20041;-75
2023/02/23 07:22:03;;;;;;;36.08;18.95;;;;;;;6.65;88.62;95942.91;5009679;28;20053;-75
2023/02/23 07:24:30;;;;;;;34.08;18.73;;;;;;;6.69;88.32;95943.91;5010666;28;20042;-75
2023/02/23 07:26:58;;;;;;;30.88;18.05;;;;;;;6.74;87.93;95949.22;5010548;28;20050;-75
2023/02/23 07:29:26;;;;;;;34.20;18.52;;;;;;;6.75;88.14;95948.91;5009937;28;20516;-75
2023/02/23 07:31:52;;;;;;;33.78;19.10;;;;;;;6.80;88.17;95948.81;5010361;28;20497;-75
2023/02/23 07:34:19;;;;;;;38.55;19.80;;;;;;;6.79;88.29;95949.13;5009686;28;20068;-75
2023/02/23 07:36:45;;;;;;;33.50;18.10;;;;;;;6.84;88.14;95954.41;5010412;28;20053;-75
2023/02/23 07:39:12;;;;;;;33.55;18.95;;;;;;;6.87;88.19;95951.09;5009987;28;20045;-75
2023/02/23 07:41:39;;;;;;;32.55;17.77;;;;;;;6.93;87.51;95955.28;5010153;28;20100;-75
2023/02/23 07:44:07;;;;;;;32.63;18.48;;;;;;;7.05;87.74;95955.56;5009651;28;20046;-75
2023/02/23 07:46:33;;;;;;;30.77;17.52;;;;;;;7.10;87.17;95964.66;5010578;28;20073;-75
2023/02/23 07:49:00;;;;;;;33.40;18.50;;;;;;;7.13;86.59;95955.94;5010641;28;20441;-75
2023/02/23 07:51:26;;;;;;;31.08;18.23;;;;;;;7.44;86.55;95959.53;5010080;28;20494;-75
2023/02/23 07:53:54;;;;;;;34.13;17.55;;;;;;;7.62;84.77;95960.47;5010401;28;20414;-75
2023/02/23 07:56:20;;;;;;;32.88;18.35;;;;;;;7.72;84.23;95960.22;5010248;28;20050;-75
2023/02/23 07:58:47;;;;;;;32.20;18.08;;;;;;;7.76;83.83;95960.41;5011247;28;20058;-78
2023/02/23 08:01:14;;;;;;;31.73;18.13;;;;;;;7.75;84.27;95966.94;5013237;28;20042;-75
2023/02/23 08:03:48;;;;;;;35.72;19.52;;;;;;;7.89;83.87;95958.75;5013676;28;20045;-75
2023/02/23 08:06:14;;;;;;;;;;;;;;;8.26;83.09;95969.13;5013946;28;20133;-75
2023/02/23 08:08:41;;;;;;;32.28;18.80;;;;;;;8.38;82.29;95973.19;5014099;28;20008;-75
2023/02/23 08:11:07;;;;;;;33.67;19.20;;;;;;;8.49;82.40;95967.19;5013343;28;20045;-75
2023/02/23 08:13:34;;;;;;;38.08;20.00;;;;;;;8.40;82.63;95974.47;5013786;28;20042;-74
2023/02/23 08:16:01;;;;;;;32.72;18.10;;;;;;;8.72;82.27;95975.22;5013561;28;20046;-75
2023/02/23 08:18:29;;;;;;;34.72;17.98;;;;;;;9.08;80.68;95970.38;5013880;28;20053;-76
2023/02/23 08:20:58;;;;;;;33.22;18.77;;;;;;;9.28;79.87;95968.16;5013808;28;20042;-76
2023/02/23 08:23:24;;;;;;;34.60;18.35;;;;;;;9.36;79.85;95970.88;5013552;28;20069;-77
2023/02/23 08:25:52;;;;;;;33.67;18.70;;;;;;;9.47;79.71;95973.28;5014103;28;20046;-76
2023/02/23 08:28:19;;;;;;;33.90;19.33;;;;;;;9.56;80.24;95974.88;5013666;28;20049;-77
2023/02/23 08:30:45;;;;;;;32.80;18.70;;;;;;;9.75;80.44;95976.44;5013749;28;20049;-76
2023/02/23 08:33:11;;;;;;;31.88;18.90;;;;;;;9.58;80.95;95978.06;5014253;28;20046;-77
2023/02/23 08:35:39;;;;;;;34.25;19.33;;;;;;;9.93;79.87;95975.31;5013925;28;20061;-76
2023/02/23 08:38:06;;;;;;;30.27;18.52;;;;;;;9.75;79.72;95969.09;5013696;28;20037;-76
2023/02/23 08:40:32;;;;;;;33.90;19.30;;;;;;;9.87;79.34;95971.97;5014402;28;20045;-76
2023/02/23 08:42:59;;;;;;;30.95;18.63;;;;;;;10.13;77.79;95968.41;5015426;28;20053;-76
2023/02/23 08:45:28;;;;;;;29.98;17.52;;;;;;;10.73;75.14;95975.56;5014625;28;20535;-76
2023/02/23 08:47:54;;;;;;;26.38;16.20;;;;;;;11.54;72.45;95970.88;5016934;28;20053;-73
2023/02/23 08:50:21;;;;;;;31.38;17.52;;;;;;;11.77;70.23;95967.47;5015093;28;20497;-75
2023/02/23 08:52:49;;;;;;;27.70;16.73;;;;;;;11.75;70.54;95967.00;5017631;28;20138;-75
2023/02/23 08:55:17;;;;;;;32.35;19.00;;;;;;;11.65;70.53;95972.09;5014517;28;20050;-74
2023/02/23 08:57:43;;;;;;;35.20;18.40;;;;;;;11.70;70.39;95975.41;5017166;28;20505;-74
2023/02/23 09:00:15;;;;;;;35.22;17.52;;;;;;;11.92;70.18;95976.19;5015543;28;20756;-75
2023/02/23 09:02:42;;;;;;;34.20;18.15;;;;;;;11.95;70.66;95964.59;5017270;28;20045;-74
2023/02/23 09:05:10;;;;;;;30.63;18.02;;;;;;;11.58;70.58;95972.59;5018036;28;20489;-74
2023/02/23 09:07:38;;;;;;;33.95;18.70;;;;;;;11.75;71.87;95972.47;5013242;28;20037;-75
2023/02/23 09:10:08;;;;;;;29.80;17.13;;;;;;;11.47;72.36;95972.19;5011715;28;20042;-74
2023/02/23 09:12:34;;;;;;;28.20;16.73;;;;;;;11.60;73.59;95969.56;5012922;28;20053;-75
2023/02/23 09:15:01;;;;;;;27.73;17.02;;;;;;;11.47;71.85;95971.41;5013197;28;20053;-74
2023/02/23 09:17:27;;;;;;;28.67;16.85;;;;;;;11.55;71.64;95967.81;5012693;28;20457;-74
2023/02/23 09:19:54;;;;;;;32.63;16.73;;;;;;;11.43;72.77;95970.47;5012908;28;20044;-74
2023/02/23 09:22:20;;;;;;;31.50;18.25;;;;;;;11.45;74.54;95973.69;5011963;28;20050;-74
2023/02/23 09:24:47;;;;;;;29.75;17.55;;;;;;;11.30;74.04;95963.38;5012704;28;20045;-75
2023/02/23 09:27:15;;;;;;;29.40;16.70;;;;;;;11.55;72.31;95973.28;5011729;28;20046;-74
2023/02/23 09:29:42;;;;;;;32.22;16.10;;;;;;;11.57;73.61;95968.28;5012774;28;20045;-74
2023/02/23 09:32:09;;;;;;;29.05;17.05;;;;;;;11.00;74.43;95978.94;5011603;28;20072;-75
2023/02/23 09:34:35;;;;;;;35.28;17.73;;;;;;;10.32;77.42;95981.66;5011763;28;20045;-75
2023/02/23 09:37:02;;;;;;;32.50;18.35;;;;;;;10.34;78.43;95979.41;5011835;28;20052;-74
2023/02/23 09:39:29;;;;;;;31.92;17.63;;;;;;;10.15;79.55;95980.53;5012275;28;20063;-76
2023/02/23 09:42:31;;;;;;;31.80;17.10;;;;;;;10.41;79.39;95985.16;5012028;28;20053;-74
2023/02/23 09:45:07;;;;;;;32.38;17.63;;;;;;;10.33;79.89;95977.78;4989459;28;20057;-75
2023/02/23 09:47:45;;;;;;;32.97;17.83;;;;;;;10.29;81.06;95982.31;5012021;28;20049;-76
2023/02/23 09:50:17;;;;;;;30.23;17.42;;;;;;;10.13;82.61;95980.09;5011748;28;20046;-74
2023/02/23 09:52:49;;;;;;;31.05;18.15;;;;;;;10.27;81.91;95984.53;5013018;28;20103;-75
2023/02/23 09:55:16;;;;;;;28.38;17.45;;;;;;;10.45;81.04;95992.34;5011299;28;20413;-77
2023/02/23 09:57:47;;;;;;;34.92;18.17;;;;;;;10.57;79.81;95982.69;5012638;28;20038;-76
2023/02/23 10:00:17;;;;;;;27.77;16.13;;;;;;;10.42;79.74;95995.69;5012448;28;20060;-77
2023/02/23 10:02:58;;;;;;;34.75;17.52;;;;;;;9.89;81.83;95982.53;5012811;28;20069;-76
2023/02/23 10:05:30;;;;;;;31.30;17.08;;;;;;;9.88;83.42;95986.38;5011270;28;20050;-75
2023/02/23 10:08:04;;;;;;;36.35;17.77;;;;;;;10.09;82.83;95992.72;5012505;28;20124;-76
2023/02/23 10:10:40;;;;;;;35.92;17.50;;;;;;;9.92;84.00;95990.03;5012407;28;20493;-76
2023/02/23 10:13:15;;;;;;;31.35;17.70;;;;;;;10.09;82.35;95984.56;5011950;28;20049;-76
2023/02/23 10:15:46;;;;;;;31.27;17.60;;;;;;;10.15;81.91;95991.44;5012023;28;20390;-77
2023/02/23 10:18:24;;;;;;;30.73;17.48;;;;;;;10.12;82.26;95977.66;5011663;28;20452;-76
2023/02/23 10:20:59;;;;;;;31.45;17.30;;;;;;;10.26;82.24;95982.94;5011293;28;20111;-76
2023/02/23 10:23:30;;;;;;;30.13;17.38;;;;;;;10.24;81.21;95988.72;5010890;28;20046;-76
2023/02/23 10:26:00;;;;;;;28.35;16.25;;;;;;;10.36;80.50;95982.59;5011665;28;20050;-76
2023/02/23 10:28:34;;;;;;;30.92;17.17;;;;;;;10.46;80.55;95987.69;5011283;28;20121;-76
2023/02/23 10:31:02;;;;;;;35.72;16.23;;;;;;;10.41;80.40;95985.16;5011884;28;20046;-77
2023/02/23 10:33:35;;;;;;;29.85;16.17;;;;;;;10.35;80.43;95981.81;5011709;28;20040;-76
2023/02/23 10:36:12;;;;;;;29.60;17.00;;;;;;;10.50;80.97;95988.66;5011523;28;20571;-77
2023/02/23 10:38:39;;;;;;;29.40;17.15;;;;;;;10.55;79.91;95985.75;5011600;28;20042;-74
2023/02/23 10:41:07;;;;;;;28.88;16.10;;;;;;;10.47;79.66;95983.03;5011933;28;20049;-76
2023/02/23 10:43:35;;;;;;;30.83;16.73;;;;;;;10.52;78.94;95986.38;5012952;28;20053;-76
2023/02/23 10:46:03;;;;;;;28.15;14.93;;;;;;;10.54;78.50;95989.56;5011993;28;20050;-76
2023/02/23 10:48:37;;;;;;;25.77;16.02;;;;;;;10.55;78.52;95983.03;5011929;28;20034;-74
2023/02/23 10:51:04;;;;;;;29.13;16.15;;;;;;;10.59;78.23;95983.94;5010525;28;20468;-74
2023/02/23 10:53:34;;;;;;;29.65;15.73;;;;;;;10.63;77.82;95982.16;5011874;28;20045;-75
2023/02/23 10:56:05;;;;;;;25.30;14.50;;;;;;;10.08;80.19;95988.41;5011358;28;20086;-74
2023/02/23 10:58:39;;;;;;;29.23;14.82;;;;;;;10.38;80.35;95980.34;5011113;28;20109;-75
2023/02/23 11:01:07;;;;;;;25.25;14.48;;;;;;;10.47;80.76;95978.41;5011435;28;20083;-75
2023/02/23 11:03:37;;;;;;;24.65;14.43;;;;;;;10.69;79.73;95974.63;5011973;28;20038;-75
2023/02/23 11:06:04;;;;;;;22.48;13.52;;;;;;;10.71;79.49;95983.28;5013591;28;20054;-74
2023/02/23 11:08:33;;;;;;;26.92;14.18;;;;;;;10.62;79.34;95977.84;5015008;28;20037;-75
2023/02/23 11:11:18;;;;;;;28.67;13.68;;;;;;;10.70;78.96;95977.03;5015220;28;20057;-75
2023/02/23 11:13:47;;;;;;;30.27;15.52;;;;;;;10.82;78.95;95979.03;5013570;28;20056;-75
2023/02/23 11:16:17;;;;;;;20.10;13.00;;;;;;;11.05;77.86;95965.94;5012809;28;20050;-74
2023/02/23 11:18:53;;;;;;;25.15;12.75;;;;;;;11.07;77.54;95969.13;5012548;28;20133;-75
2023/02/23 11:21:26;;;;;;;22.35;12.48;;;;;;;10.87;77.76;95965.25;5009908;28;20069;-75
2023/02/23 11:23:55;;;;;;;22.02;13.32;;;;;;;10.88;78.40;95968.75;5011386;28;20042;-74
2023/02/23 11:26:32;;;;;;;20.77;12.63;;;;;;;10.81;78.91;95961.13;5011769;28;20046;-74
2023/02/23 11:29:04;;;;;;;21.10;12.52;;;;;;;10.95;78.74;95955.41;5011628;28;20049;-75
2023/02/23 11:31:34;;;;;;;19.93;11.87;;;;;;;10.88;77.29;95960.59;5011507;28;20156;-74
2023/02/23 11:34:03;;;;;;;18.48;10.95;;;;;;;10.78;77.62;95959.03;5014352;28;20490;-75
2023/02/23 11:36:32;;;;;;;20.33;11.00;;;;;;;10.99;76.83;95956.34;5016326;28;20046;-74
2023/02/23 11:39:06;;;;;;;17.67;10.60;;;;;;;10.60;77.39;95950.16;5016392;28;20062;-75
2023/02/23 11:41:34;;;;;;;17.20;10.50;;;;;;;10.96;77.00;95946.09;5016355;28;20489;-74
2023/02/23 11:44:02;;;;;;;18.40;11.13;;;;;;;10.89;76.63;95945.84;5017392;28;20052;-75
2023/02/23 11:46:33;;;;;;;16.77;10.45;;;;;;;10.51;78.08;95943.97;5015658;28;20130;-74
2023/02/23 11:49:02;;;;;;;27.90;12.43;;;;;;;10.50;78.92;95945.09;5015011;28;20682;-74
2023/02/23 11:51:33;;;;;;;21.95;11.55;;;;;;;10.56;78.42;95943.78;5014974;28;20052;-76
2023/02/23 11:54:01;;;;;;;22.75;12.23;;;;;;;10.43;79.68;95944.78;5016928;28;20042;-74
2023/02/23 11:56:31;;;;;;;20.30;11.27;;;;;;;10.48;80.15;95941.88;5015227;28;20049;-75
2023/02/23 11:59:00;;;;;;;24.30;12.77;;;;;;;10.60;80.28;95939.28;5016009;28;20044;-76
2023/02/23 12:01:44;;;;;;;21.92;12.00;;;;;;;10.67;79.26;95934.09;5015414;28;20061;-76
2023/02/23 12:04:22;;;;;;;;;;;;;;;10.56;79.57;95932.88;5009324;28;20133;-76
2023/02/23 12:06:50;;;;;;;23.50;11.80;;;;;;;10.71;78.99;95926.88;5016024;28;20308;-76
2023/02/23 12:09:22;;;;;;;19.10;10.77;;;;;;;10.79;78.67;95929.88;5014860;28;20054;-76
2023/02/23 12:11:52;;;;;;;22.95;11.45;;;;;;;10.76;78.23;95925.91;5015864;28;20053;-74
2023/02/23 12:14:29;;;;;;;22.05;11.30;;;;;;;10.80;78.05;95926.81;5014458;28;20045;-76
2023/02/23 12:17:02;;;;;;;22.92;11.88;;;;;;;10.44;79.36;95932.78;5015621;28;20049;-76
2023/02/23 12:19:33;;;;;;;23.40;11.50;;;;;;;10.62;78.49;95920.69;5014590;28;20060;-74
2023/02/23 12:22:06;;;;;;;21.52;11.43;;;;;;;10.45;79.98;95926.22;5015024;28;20394;-74
2023/02/23 12:24:42;;;;;;;22.27;11.35;;;;;;;10.32;81.20;95932.66;5014598;28;20060;-75
2023/02/23 12:27:13;;;;;;;20.52;11.90;;;;;;;10.30;80.72;95924.84;5014865;28;20070;-76
2023/02/23 12:29:52;;;;;;;27.25;13.15;;;;;;;10.31;81.25;95915.53;5030122;28;20045;-74
2023/02/23 12:32:24;;;;;;;23.67;13.05;;;;;;;10.23;82.26;95920.97;5014695;28;20046;-75
2023/02/23 12:34:55;;;;;;;23.02;12.38;;;;;;;10.41;80.70;95914.38;5014612;28;20516;-74
2023/02/23 12:37:38;;;;;;;20.30;11.60;;;;;;;10.66;79.43;95912.66;5014073;28;20054;-75
2023/02/23 12:40:14;;;;;;;19.08;10.27;;;;;;;10.81;78.86;95914.03;5016702;28;20042;-74
2023/02/23 12:42:51;;;;;;;22.27;11.32;;;;;;;10.79;77.87;95913.53;5016363;28;20046;-74
2023/02/23 12:45:24;;;;;;;18.95;11.00;;;;;;;10.88;77.38;95909.63;5015399;28;20046;-75
2023/02/23 12:47:56;;;;;;;;;;;;;;;10.87;77.44;95912.69;5014687;28;20053;-74
2023/02/23 12:50:29;;;;;;;17.60;9.75;;;;;;;10.96;77.18;95902.50;5014030;28;19922;-75
2023/02/23 12:53:00;;;;;;;18.50;11.25;;;;;;;10.78;77.92;95906.50;5015022;28;20054;-74
2023/02/23 12:55:39;;;;;;;19.33;11.32;;;;;;;10.73;77.98;95909.41;5012967;28;20042;-74
2023/02/23 12:58:15;;;;;;;17.10;10.07;;;;;;;10.89;78.53;95902.25;5014602;28;20066;-74